Time;durP1;ratioP1;P1;durP2;ratioP2;P2;SDS_P1;SDS_P2;PMS_P1;PMS_P2;Temp;Humidity;BMP_temperature;BMP_pressure;BME280_temperature;BME280_humidity;BME280_pressure;Samples;Min_cycle;Max_cycle;Signal;HPM_P1;HPM_P2
2022/10/18 00:01:13;;;;;;;118.80;31.08;;;14.30;99.90;;;;;;5013649;28;20064;-69
2022/10/18 00:03:39;;;;;;;148.82;33.33;;;14.30;99.90;;;;;;5012772;28;20045;-69
2022/10/18 00:06:06;;;;;;;132.27;32.95;;;14.30;99.90;;;;;;4996162;28;20229;-70
2022/10/18 00:08:32;;;;;;;128.48;33.47;;;14.30;99.90;;;;;;5012687;28;20054;-69
2022/10/18 00:10:57;;;;;;;141.43;34.95;;;14.30;99.90;;;;;;4996338;28;20052;-69
2022/10/18 00:13:23;;;;;;;142.70;35.97;;;14.30;99.90;;;;;;5012316;28;20140;-70
2022/10/18 00:15:58;;;;;;;148.40;37.20;;;14.20;99.90;;;;;;5012524;28;20053;-70
2022/10/18 00:18:24;;;;;;;146.50;36.08;;;14.20;99.90;;;;;;4995606;28;20049;-70
2022/10/18 00:21:02;;;;;;;153.48;36.17;;;14.30;99.90;;;;;;4996094;28;20092;-69
2022/10/18 00:23:29;;;;;;;151.55;35.50;;;14.20;99.90;;;;;;5012230;28;20459;-69
2022/10/18 00:26:07;;;;;;;144.48;34.33;;;14.20;99.90;;;;;;4979948;28;20050;-69
2022/10/18 00:28:34;;;;;;;140.05;32.92;;;14.00;99.90;;;;;;5012169;28;20395;-69
2022/10/18 00:31:24;;;;;;;136.45;34.10;;;14.00;99.90;;;;;;4995984;28;20447;-70
2022/10/18 00:33:53;;;;;;;136.88;32.28;;;14.00;99.90;;;;;;4996101;28;20058;-70
2022/10/18 00:36:19;;;;;;;116.82;31.67;;;13.90;99.90;;;;;;5012041;28;20042;-69
2022/10/18 00:38:46;;;;;;;114.43;32.45;;;14.00;99.90;;;;;;5012096;28;20041;-70
2022/10/18 00:41:14;;;;;;;96.43;30.05;;;13.90;99.90;;;;;;5012012;28;20108;-69
2022/10/18 00:43:59;;;;;;;140.48;34.33;;;13.90;99.90;;;;;;4995874;28;20088;-69
2022/10/18 00:46:27;;;;;;;116.68;32.50;;;13.90;99.90;;;;;;5012053;28;20050;-69
2022/10/18 00:48:56;;;;;;;119.88;31.20;;;14.00;99.90;;;;;;5012152;28;20057;-71
2022/10/18 00:51:25;;;;;;;105.80;29.58;;;13.90;99.90;;;;;;4995499;28;20050;-70
2022/10/18 00:53:51;;;;;;;111.38;31.40;;;13.90;99.90;;;;;;5028619;28;20050;-69
2022/10/18 00:56:17;;;;;;;93.55;29.13;;;13.90;99.90;;;;;;4995612;28;20129;-69
2022/10/18 00:58:45;;;;;;;108.13;29.85;;;14.00;99.90;;;;;;4995431;28;20050;-69
2022/10/18 01:01:10;;;;;;;95.32;29.35;;;14.00;99.90;;;;;;5015438;28;20057;-70
2022/10/18 01:03:37;;;;;;;100.22;28.95;;;14.00;99.90;;;;;;4999534;28;20046;-69
2022/10/18 01:06:02;;;;;;;99.15;28.08;;;14.00;99.90;;;;;;5016078;28;20046;-70
2022/10/18 01:08:43;;;;;;;114.85;30.42;;;14.00;99.90;;;;;;5015667;28;20490;-69
2022/10/18 01:11:34;;;;;;;88.93;27.50;;;13.90;99.90;;;;;;5015900;28;20053;-69
2022/10/18 01:14:29;;;;;;;91.20;26.35;;;14.00;99.90;;;;;;5015611;28;20843;-70
2022/10/18 01:17:05;;;;;;;101.00;27.02;;;14.00;99.90;;;;;;4981088;28;20051;-69
2022/10/18 01:19:43;;;;;;;90.10;27.77;;;13.90;99.90;;;;;;5015591;28;20053;-69
2022/10/18 01:22:19;;;;;;;101.47;26.70;;;13.90;99.90;;;;;;4999430;28;20081;-69
2022/10/18 01:25:06;;;;;;;107.53;26.42;;;13.80;99.90;;;;;;4999312;28;20077;-70
2022/10/18 01:27:54;;;;;;;98.75;26.75;;;13.80;99.90;;;;;;5014889;28;20058;-69
2022/10/18 01:30:22;;;;;;;100.00;28.52;;;13.80;99.90;;;;;;5015331;28;20513;-70
2022/10/18 01:32:53;;;;;;;117.63;29.42;;;13.70;99.90;;;;;;4999160;28;20046;-69
2022/10/18 01:35:32;;;;;;;124.97;28.60;;;13.60;99.90;;;;;;4999000;28;20103;-69
2022/10/18 01:38:03;;;;;;;133.68;30.33;;;13.50;99.90;;;;;;4998854;28;20037;-69
2022/10/18 01:40:30;;;;;;;210.30;34.80;;;13.40;99.90;;;;;;5015221;28;20054;-69
2022/10/18 01:42:56;;;;;;;125.88;29.17;;;13.30;99.90;;;;;;5031759;28;20061;-69
2022/10/18 01:45:24;;;;;;;140.60;31.27;;;13.30;99.90;;;;;;5014742;28;20042;-69
2022/10/18 01:47:51;;;;;;;123.72;30.63;;;13.30;99.90;;;;;;4999080;28;20510;-69
2022/10/18 01:50:30;;;;;;;140.23;31.52;;;13.30;99.90;;;;;;5015205;28;20072;-69
2022/10/18 01:52:57;;;;;;;157.95;30.20;;;13.30;99.90;;;;;;5015244;28;20103;-69
2022/10/18 01:55:49;;;;;;;124.90;30.92;;;13.30;99.90;;;;;;5014574;28;20052;-69
2022/10/18 01:58:25;;;;;;;135.65;31.23;;;13.30;99.90;;;;;;5014634;28;20461;-69
2022/10/18 02:01:04;;;;;;;187.70;33.55;;;13.30;99.90;;;;;;5015017;28;20085;-69
2022/10/18 02:03:29;;;;;;;176.73;34.00;;;13.20;99.90;;;;;;5014795;28;20454;-69
2022/10/18 02:06:19;;;;;;;184.98;33.17;;;13.20;99.90;;;;;;5014929;28;20038;-69
2022/10/18 02:09:10;;;;;;;152.15;33.17;;;13.10;99.90;;;;;;5014624;28;20108;-69
2022/10/18 02:11:38;;;;;;;149.65;31.83;;;13.20;99.90;;;;;;5013509;28;20128;-69
2022/10/18 02:14:11;;;;;;;177.25;33.97;;;13.20;99.90;;;;;;5014686;28;20049;-70
2022/10/18 02:16:48;;;;;;;194.27;35.40;;;13.20;99.90;;;;;;5014537;28;20050;-69
2022/10/18 02:19:22;;;;;;;178.07;32.88;;;13.20;99.90;;;;;;4997984;28;20042;-69
2022/10/18 02:21:50;;;;;;;188.82;34.25;;;13.20;99.90;;;;;;5014335;28;20096;-70
2022/10/18 02:24:18;;;;;;;327.27;37.75;;;13.10;99.90;;;;;;5014559;28;20056;-70
2022/10/18 02:26:43;;;;;;;187.00;31.88;;;13.10;99.90;;;;;;5013954;28;20546;-69
2022/10/18 02:29:10;;;;;;;184.15;34.40;;;13.20;99.90;;;;;;5014457;28;20144;-69
2022/10/18 02:31:44;;;;;;;298.20;37.20;;;13.10;99.90;;;;;;5014138;28;20046;-69
2022/10/18 02:34:24;;;;;;;205.02;33.03;;;13.10;99.90;;;;;;4998123;28;20072;-69
2022/10/18 02:36:58;;;;;;;458.00;43.33;;;13.10;99.90;;;;;;4997782;28;20072;-69
2022/10/18 02:39:29;;;;;;;364.73;38.10;;;13.10;99.90;;;;;;4997959;28;20053;-69
2022/10/18 02:41:56;;;;;;;477.23;41.83;;;13.10;99.90;;;;;;5014260;28;20057;-69
2022/10/18 02:44:22;;;;;;;624.42;42.85;;;13.10;99.90;;;;;;4997775;28;20072;-69
2022/10/18 02:46:48;;;;;;;614.95;47.15;;;13.00;99.90;;;;;;5013792;28;20057;-69
2022/10/18 02:49:14;;;;;;;540.78;40.17;;;13.00;99.90;;;;;;5013957;28;20050;-69
2022/10/18 02:51:39;;;;;;;635.03;45.60;;;13.00;99.90;;;;;;4997575;28;20089;-69
2022/10/18 02:54:07;;;;;;;545.97;42.65;;;12.90;99.90;;;;;;5013602;28;20057;-69
2022/10/18 02:56:33;;;;;;;476.02;37.22;;;12.90;99.90;;;;;;5013692;28;20146;-69
2022/10/18 02:58:59;;;;;;;592.38;42.50;;;12.90;99.90;;;;;;5013569;28;20053;-69
2022/10/18 03:01:25;;;;;;;460.13;36.38;;;12.90;99.90;;;;;;4997446;28;20145;-69
2022/10/18 03:03:50;;;;;;;427.77;36.38;;;12.90;99.90;;;;;;4997287;28;20049;-69
2022/10/18 03:06:16;;;;;;;530.63;41.50;;;12.90;99.90;;;;;;4980935;28;20054;-69
2022/10/18 03:08:42;;;;;;;234.45;30.80;;;12.90;99.90;;;;;;4997252;28;20045;-69
2022/10/18 03:11:07;;;;;;;365.58;34.65;;;13.00;99.90;;;;;;5014662;28;20049;-69
2022/10/18 03:13:33;;;;;;;649.15;48.95;;;12.90;99.90;;;;;;4996799;28;20096;-68
2022/10/18 03:15:59;;;;;;;687.83;44.78;;;13.00;99.90;;;;;;5013564;28;20096;-69
2022/10/18 03:18:25;;;;;;;414.30;35.05;;;12.90;99.90;;;;;;5013741;28;20398;-69
2022/10/18 03:20:51;;;;;;;400.60;35.08;;;12.90;99.90;;;;;;4996968;28;20046;-70
2022/10/18 03:23:17;;;;;;;415.73;31.88;;;13.00;99.90;;;;;;4997146;28;20120;-69
2022/10/18 03:25:43;;;;;;;495.25;40.63;;;12.90;99.90;;;;;;5013232;28;20492;-69
2022/10/18 03:28:09;;;;;;;406.05;32.88;;;12.90;99.90;;;;;;5012623;28;20080;-69
2022/10/18 03:30:34;;;;;;;532.72;38.47;;;12.90;99.90;;;;;;4996887;28;20478;-69
2022/10/18 03:33:00;;;;;;;511.83;39.22;;;13.00;99.90;;;;;;5013334;28;20056;-70
2022/10/18 03:35:26;;;;;;;518.25;37.22;;;13.00;99.90;;;;;;4996691;28;20132;-69
2022/10/18 03:37:51;;;;;;;457.67;35.30;;;13.10;99.90;;;;;;5012876;28;20046;-69
2022/10/18 03:40:17;;;;;;;514.78;43.10;;;13.10;99.90;;;;;;5013146;28;20382;-69
2022/10/18 03:42:43;;;;;;;386.88;36.38;;;13.20;99.90;;;;;;5012968;28;20049;-69
2022/10/18 03:45:09;;;;;;;386.70;34.78;;;13.20;99.90;;;;;;5013004;28;20493;-69
2022/10/18 03:47:34;;;;;;;533.20;42.28;;;13.20;99.90;;;;;;4996713;28;20052;-69
2022/10/18 03:50:00;;;;;;;341.15;34.15;;;13.20;99.90;;;;;;4996410;28;20386;-69
2022/10/18 03:52:26;;;;;;;320.17;34.17;;;13.20;99.90;;;;;;5012913;28;20050;-69
2022/10/18 03:54:51;;;;;;;519.03;44.22;;;13.30;99.90;;;;;;5012763;28;20050;-69
2022/10/18 03:57:17;;;;;;;438.77;38.88;;;13.30;99.90;;;;;;5012702;28;20104;-69
2022/10/18 03:59:43;;;;;;;382.67;38.10;;;13.30;99.90;;;;;;4996260;28;20046;-69
2022/10/18 04:02:09;;;;;;;401.23;36.20;;;13.30;99.90;;;;;;4996461;28;20049;-69
2022/10/18 04:04:34;;;;;;;308.52;32.60;;;13.30;99.90;;;;;;4996375;28;20046;-69
2022/10/18 04:07:00;;;;;;;364.60;34.58;;;13.30;99.90;;;;;;4995799;28;20054;-69
2022/10/18 04:09:26;;;;;;;345.40;33.40;;;13.20;99.90;;;;;;4996283;28;20056;-70
2022/10/18 04:11:51;;;;;;;387.90;34.80;;;13.20;99.90;;;;;;5012357;28;20054;-69
2022/10/18 04:14:20;;;;;;;261.42;28.45;;;13.10;99.90;;;;;;5012542;28;20053;-69
2022/10/18 04:16:45;;;;;;;430.55;36.28;;;13.20;99.90;;;;;;4980095;28;20104;-69
2022/10/18 04:19:11;;;;;;;251.68;29.00;;;13.20;99.90;;;;;;5012191;28;20152;-69
2022/10/18 04:21:37;;;;;;;326.60;32.97;;;13.10;99.90;;;;;;5012359;28;20042;-69
2022/10/18 04:24:03;;;;;;;307.67;30.30;;;13.10;99.90;;;;;;5012110;28;20137;-69
2022/10/18 04:26:29;;;;;;;387.27;35.13;;;13.20;99.90;;;;;;4979459;28;20054;-69
2022/10/18 04:28:54;;;;;;;263.25;29.05;;;13.10;99.90;;;;;;5012104;28;20057;-69
2022/10/18 04:31:20;;;;;;;313.27;32.47;;;13.10;99.90;;;;;;4995976;28;20137;-69
2022/10/18 04:33:46;;;;;;;238.07;27.27;;;13.10;99.90;;;;;;4979247;28;20073;-68
2022/10/18 04:36:11;;;;;;;312.75;33.38;;;13.10;99.90;;;;;;5011718;28;20100;-69
2022/10/18 04:38:37;;;;;;;406.15;33.75;;;13.00;99.90;;;;;;4995738;28;20053;-69
2022/10/18 04:41:03;;;;;;;236.15;28.05;;;12.90;99.90;;;;;;5011749;28;20053;-69
2022/10/18 04:43:28;;;;;;;287.92;31.40;;;12.90;99.90;;;;;;5012147;28;20046;-69
2022/10/18 04:45:54;;;;;;;327.25;31.33;;;13.00;99.90;;;;;;5011986;28;20050;-69
2022/10/18 04:48:20;;;;;;;427.65;36.20;;;12.90;99.90;;;;;;5012167;28;20136;-69
2022/10/18 04:50:50;;;;;;;324.58;31.90;;;13.00;99.90;;;;;;5011854;28;20399;-69
2022/10/18 04:53:16;;;;;;;410.90;35.33;;;12.80;99.90;;;;;;4995711;28;20046;-69
2022/10/18 04:55:47;;;;;;;299.33;31.23;;;12.90;99.90;;;;;;5011740;28;20133;-69
2022/10/18 04:58:13;;;;;;;479.08;37.00;;;12.90;99.90;;;;;;5011932;28;20052;-69
2022/10/18 05:00:40;;;;;;;373.95;32.40;;;12.90;99.90;;;;;;4995788;28;20049;-69
2022/10/18 05:03:06;;;;;;;263.20;27.90;;;12.70;99.90;;;;;;5011811;28;20060;-69
2022/10/18 05:05:32;;;;;;;408.77;35.53;;;12.70;99.90;;;;;;5012060;28;20050;-69
2022/10/18 05:07:57;;;;;;;370.50;32.75;;;12.80;99.90;;;;;;5011809;28;20096;-69
2022/10/18 05:10:23;;;;;;;228.23;26.13;;;12.90;99.90;;;;;;4995719;28;20050;-69
2022/10/18 05:12:49;;;;;;;208.32;27.35;;;12.90;99.90;;;;;;4995657;28;20053;-69
2022/10/18 05:15:14;;;;;;;282.98;29.67;;;12.90;99.90;;;;;;4995445;28;20128;-69
2022/10/18 05:17:40;;;;;;;234.68;26.00;;;12.80;99.90;;;;;;4995407;28;20038;-69
2022/10/18 05:20:07;;;;;;;246.85;26.02;;;13.10;99.90;;;;;;4995446;28;20136;-69
2022/10/18 05:22:32;;;;;;;212.77;24.55;;;12.90;99.90;;;;;;5011344;28;20046;-69
2022/10/18 05:24:58;;;;;;;258.65;26.80;;;12.80;99.90;;;;;;4686398;28;10000480;-70
2022/10/18 05:27:24;;;;;;;258.20;26.70;;;12.80;99.90;;;;;;4992151;28;20068;-70
2022/10/18 05:29:49;;;;;;;230.15;24.23;;;12.90;99.90;;;;;;5009303;28;20690;-70
2022/10/18 05:32:15;;;;;;;259.02;25.80;;;12.90;99.90;;;;;;5009177;28;20050;-69
2022/10/18 05:34:41;;;;;;;173.43;22.25;;;13.00;99.90;;;;;;5008436;28;20038;-70
2022/10/18 05:37:07;;;;;;;227.63;24.77;;;12.80;99.90;;;;;;4991153;28;20086;-70
2022/10/18 05:39:32;;;;;;;361.70;29.15;;;12.80;99.90;;;;;;4991640;28;20049;-70
2022/10/18 05:41:58;;;;;;;210.30;22.83;;;12.90;99.90;;;;;;5013968;28;20049;-70
2022/10/18 05:44:24;;;;;;;243.90;24.58;;;13.00;99.90;;;;;;4992182;28;20076;-69
2022/10/18 05:46:50;;;;;;;357.00;28.08;;;12.90;99.90;;;;;;5006656;28;20049;-70
2022/10/18 05:49:15;;;;;;;167.98;21.70;;;12.90;99.90;;;;;;5023430;28;20513;-69
2022/10/18 05:51:41;;;;;;;234.05;24.67;;;12.90;99.90;;;;;;4995625;28;20506;-69
2022/10/18 05:54:08;;;;;;;266.08;23.27;;;12.90;99.90;;;;;;4995622;28;20041;-70
2022/10/18 05:56:33;;;;;;;240.57;24.77;;;12.90;99.90;;;;;;5011685;28;20057;-70
2022/10/18 05:58:59;;;;;;;267.40;26.02;;;12.80;99.90;;;;;;5008051;28;20033;-69
2022/10/18 06:01:25;;;;;;;201.40;21.95;;;12.90;99.90;;;;;;4994593;28;20071;-72
2022/10/18 06:03:51;;;;;;;234.90;22.58;;;13.00;99.90;;;;;;5008678;28;20050;-70
2022/10/18 06:06:16;;;;;;;272.98;25.02;;;12.90;99.90;;;;;;4994648;28;20038;-70
2022/10/18 06:08:42;;;;;;;323.42;27.33;;;12.90;99.90;;;;;;5011205;28;20062;-70
2022/10/18 06:11:11;;;;;;;270.25;24.52;;;12.80;99.90;;;;;;4993273;28;20065;-69
2022/10/18 06:13:48;;;;;;;266.10;24.33;;;12.70;99.90;;;;;;4994719;28;20060;-69
2022/10/18 06:16:16;;;;;;;344.73;26.80;;;12.70;99.90;;;;;;5011168;28;20038;-70
2022/10/18 06:18:46;;;;;;;269.13;24.88;;;12.80;99.90;;;;;;5010759;28;20052;-69
2022/10/18 06:21:11;;;;;;;278.98;24.80;;;12.80;99.90;;;;;;4995256;28;20058;-69
2022/10/18 06:23:37;;;;;;;278.88;21.90;;;12.80;99.90;;;;;;5006400;28;20127;-69
2022/10/18 06:26:05;;;;;;;373.00;25.08;;;12.70;99.90;;;;;;5010303;28;20044;-69
2022/10/18 06:28:33;;;;;;;322.85;24.15;;;12.70;99.90;;;;;;5018631;28;20133;-69
2022/10/18 06:30:59;;;;;;;327.20;24.15;;;12.60;99.90;;;;;;5010418;28;20054;-70
2022/10/18 06:33:25;;;;;;;256.67;21.40;;;12.60;99.90;;;;;;5024597;28;20053;-71
2022/10/18 06:35:58;;;;;;;284.27;21.52;;;12.70;99.90;;;;;;5011438;28;20482;-69
2022/10/18 06:38:25;;;;;;;293.45;23.63;;;12.50;99.90;;;;;;5011016;28;20129;-68
2022/10/18 06:40:50;;;;;;;207.85;21.48;;;12.60;99.90;;;;;;5011546;28;20121;-69
2022/10/18 06:43:16;;;;;;;265.13;22.58;;;12.50;99.90;;;;;;4995247;28;20129;-69
2022/10/18 06:45:42;;;;;;;260.10;24.05;;;12.60;99.90;;;;;;4994553;28;20042;-69
2022/10/18 06:48:07;;;;;;;300.50;23.00;;;12.50;99.90;;;;;;5002568;28;20444;-69
2022/10/18 06:50:33;;;;;;;265.70;22.80;;;12.60;99.90;;;;;;5010253;28;20048;-69
2022/10/18 06:53:00;;;;;;;257.15;21.88;;;12.50;99.90;;;;;;4991434;28;20045;-70
2022/10/18 06:55:25;;;;;;;288.67;23.42;;;12.60;99.90;;;;;;5010415;28;20049;-69
2022/10/18 06:57:52;;;;;;;281.90;22.25;;;12.50;99.90;;;;;;5010823;28;20501;-69
2022/10/18 07:00:17;;;;;;;245.13;20.90;;;12.50;99.90;;;;;;5010031;28;20038;-69
2022/10/18 07:02:43;;;;;;;261.98;22.08;;;12.60;99.90;;;;;;4997259;28;20388;-69
2022/10/18 07:05:10;;;;;;;254.77;21.42;;;12.50;99.90;;;;;;5008275;28;20136;-69
2022/10/18 07:07:36;;;;;;;208.25;18.30;;;12.60;99.90;;;;;;5027873;28;20045;-69
2022/10/18 07:10:02;;;;;;;292.63;23.90;;;12.70;99.90;;;;;;5011223;28;20048;-69
2022/10/18 07:12:28;;;;;;;246.40;19.60;;;12.60;99.90;;;;;;5010553;28;20053;-70
2022/10/18 07:14:54;;;;;;;224.68;18.67;;;12.60;99.90;;;;;;5011258;28;20054;-69
2022/10/18 07:17:19;;;;;;;191.10;17.10;;;12.70;99.90;;;;;;4994241;28;20394;-70
2022/10/18 07:19:45;;;;;;;272.65;21.35;;;12.60;99.90;;;;;;5010711;28;20121;-70
2022/10/18 07:22:11;;;;;;;291.77;21.88;;;12.60;99.90;;;;;;5010904;28;20046;-69
2022/10/18 07:24:37;;;;;;;226.98;19.48;;;12.60;99.90;;;;;;5014676;28;20164;-70
2022/10/18 07:27:02;;;;;;;229.23;19.60;;;12.60;99.90;;;;;;4993346;28;20056;-69
2022/10/18 07:29:28;;;;;;;230.93;19.00;;;12.80;99.90;;;;;;5009838;28;20058;-69
2022/10/18 07:31:54;;;;;;;258.48;19.85;;;12.70;99.90;;;;;;5010299;28;20050;-70
2022/10/18 07:34:19;;;;;;;255.18;19.95;;;12.90;99.90;;;;;;5009896;28;20074;-69
2022/10/18 07:36:45;;;;;;;138.20;14.80;;;12.80;99.90;;;;;;5009530;28;20045;-69
2022/10/18 07:39:11;;;;;;;260.25;20.20;;;12.70;99.90;;;;;;5009545;28;20111;-73
2022/10/18 07:41:37;;;;;;;297.98;19.92;;;12.90;99.90;;;;;;5010095;28;20054;-69
2022/10/18 07:44:03;;;;;;;151.30;16.83;;;12.80;99.90;;;;;;5010032;28;20096;-69
2022/10/18 07:46:29;;;;;;;194.93;18.83;;;13.00;99.90;;;;;;5010327;28;20053;-69
2022/10/18 07:48:55;;;;;;;307.90;19.65;;;12.90;99.90;;;;;;5010062;28;20189;-69
2022/10/18 07:51:21;;;;;;;322.23;20.85;;;12.90;99.90;;;;;;5010127;28;20074;-69
2022/10/18 07:53:47;;;;;;;172.85;19.45;;;13.00;99.90;;;;;;5010507;28;20054;-69
2022/10/18 07:56:15;;;;;;;167.73;16.27;;;13.20;99.90;;;;;;5010387;28;20042;-69
2022/10/18 07:58:42;;;;;;;169.30;16.02;;;13.20;99.90;;;;;;4993542;28;20045;-70
2022/10/18 08:01:08;;;;;;;143.18;15.95;;;13.20;99.90;;;;;;4993561;28;20080;-69
2022/10/18 08:03:36;;;;;;;159.07;17.00;;;13.10;99.90;;;;;;5008310;28;20477;-69
2022/10/18 08:06:02;;;;;;;165.27;15.07;;;13.30;99.90;;;;;;4993815;28;20194;-69
2022/10/18 08:08:28;;;;;;;198.30;18.50;;;13.20;99.90;;;;;;5009961;28;20131;-69
2022/10/18 08:10:54;;;;;;;127.00;14.20;;;13.20;99.90;;;;;;5009154;28;20046;-70
2022/10/18 08:13:20;;;;;;;84.68;13.25;;;13.20;99.90;;;;;;4977494;28;20046;-70
2022/10/18 08:15:46;;;;;;;111.13;14.73;;;13.10;99.90;;;;;;5010102;28;20042;-69
2022/10/18 08:18:12;;;;;;;79.90;13.70;;;13.30;99.90;;;;;;4993669;28;20049;-68
2022/10/18 08:20:43;;;;;;;48.00;13.18;;;13.30;99.90;;;;;;5008460;28;20129;-69
2022/10/18 08:23:09;;;;;;;36.53;12.30;;;13.10;99.90;;;;;;5020697;28;20390;-68
2022/10/18 08:25:34;;;;;;;32.75;11.68;;;13.30;99.90;;;;;;4986814;28;20081;-69
2022/10/18 08:28:00;;;;;;;46.78;13.88;;;13.30;99.90;;;;;;5011691;28;20506;-69
2022/10/18 08:30:26;;;;;;;36.08;12.13;;;13.40;99.90;;;;;;4994957;28;20045;-69
2022/10/18 08:32:52;;;;;;;34.28;11.38;;;13.40;99.90;;;;;;5011745;28;20050;-69
2022/10/18 08:35:18;;;;;;;29.63;11.30;;;13.50;99.90;;;;;;5006810;28;20045;-69
2022/10/18 08:37:44;;;;;;;30.15;11.38;;;13.70;99.90;;;;;;5008931;28;20046;-69
2022/10/18 08:40:13;;;;;;;48.30;13.27;;;13.80;99.90;;;;;;5009117;28;20058;-69
2022/10/18 08:42:47;;;;;;;36.80;12.77;;;14.00;99.90;;;;;;4990810;28;20509;-69
2022/10/18 08:45:14;;;;;;;28.95;11.23;;;14.10;99.90;;;;;;4992682;28;20057;-69
2022/10/18 08:47:42;;;;;;;30.92;11.15;;;14.10;99.90;;;;;;4992184;28;20395;-68
2022/10/18 08:50:16;;;;;;;23.48;10.40;;;14.20;99.90;;;;;;5006228;28;20050;-69
2022/10/18 08:53:03;;;;;;;22.98;10.10;;;14.20;99.90;;;;;;5039651;28;20054;-69
2022/10/18 08:55:45;;;;;;;19.23;10.30;;;14.50;99.90;;;;;;5008949;28;20105;-69
2022/10/18 08:58:23;;;;;;;20.85;9.25;;;14.60;99.90;;;;;;4992130;28;20434;-68
2022/10/18 09:01:06;;;;;;;21.80;9.13;;;14.60;99.90;;;;;;5009431;28;20139;-69
2022/10/18 09:04:00;;;;;;;16.33;8.40;;;14.90;99.90;;;;;;5025985;28;20053;-69
2022/10/18 09:06:44;;;;;;;19.02;8.40;;;14.80;99.90;;;;;;5009509;28;20038;-69
2022/10/18 09:09:38;;;;;;;16.80;8.40;;;14.90;99.90;;;;;;5009638;28;20100;-69
2022/10/18 09:12:12;;;;;;;16.73;7.93;;;15.10;99.90;;;;;;5009195;28;20108;-69
2022/10/18 09:15:02;;;;;;;21.02;7.88;;;15.20;99.90;;;;;;5009429;28;20045;-69
2022/10/18 09:18:06;;;;;;;21.52;8.02;;;15.20;99.90;;;;;;5009170;28;20050;-69
2022/10/18 09:20:46;;;;;;;16.48;6.90;;;15.40;99.90;;;;;;5026302;28;20042;-69
2022/10/18 09:23:20;;;;;;;16.67;6.20;;;15.60;99.90;;;;;;5004600;28;20049;-69
2022/10/18 09:26:14;;;;;;;11.93;5.63;;;15.60;99.90;;;;;;5012804;28;20325;-69
2022/10/18 09:28:52;;;;;;;13.80;5.65;;;15.60;99.90;;;;;;5012014;28;20054;-69
2022/10/18 09:31:33;;;;;;;15.18;5.50;;;15.80;99.90;;;;;;5012176;28;20045;-69
2022/10/18 09:34:21;;;;;;;15.55;4.78;;;15.70;99.90;;;;;;5009451;28;20041;-69
2022/10/18 09:36:50;;;;;;;15.15;4.72;;;15.80;99.90;;;;;;5024877;28;20490;-69
2022/10/18 09:39:22;;;;;;;14.82;4.78;;;15.90;99.90;;;;;;4996050;28;20398;-70
2022/10/18 09:41:57;;;;;;;12.77;4.00;;;15.90;99.90;;;;;;5009731;28;20129;-70
2022/10/18 09:44:26;;;;;;;11.93;3.65;;;16.00;99.90;;;;;;5012801;28;20091;-69
2022/10/18 09:47:25;;;;;;;14.70;4.32;;;16.00;99.90;;;;;;5045227;28;20122;-69
2022/10/18 09:50:00;;;;;;;11.63;4.28;;;16.00;99.90;;;;;;5009177;28;20062;-69
2022/10/18 09:52:36;;;;;;;8.73;2.97;;;16.30;99.90;;;;;;4996280;28;20045;-70
2022/10/18 09:55:14;;;;;;;11.82;3.20;;;16.20;99.90;;;;;;5007271;28;20096;-69
2022/10/18 09:57:49;;;;;;;12.73;2.75;;;16.40;99.90;;;;;;5012400;28;20068;-69
2022/10/18 10:00:21;;;;;;;9.18;2.67;;;16.40;99.90;;;;;;5012605;28;20049;-69
2022/10/18 10:02:47;;;;;;;15.98;3.40;;;16.30;99.90;;;;;;5009376;28;20054;-69
2022/10/18 10:05:14;;;;;;;14.68;2.80;;;16.50;99.90;;;;;;5000817;28;20088;-68
2022/10/18 10:07:48;;;;;;;8.82;2.33;;;16.40;99.90;;;;;;5003202;28;20085;-69
2022/10/18 10:10:22;;;;;;;9.63;1.98;;;16.50;99.90;;;;;;5035657;28;20465;-69
2022/10/18 10:13:02;;;;;;;9.88;2.20;;;16.60;99.90;;;;;;5025312;28;20042;-70
2022/10/18 10:15:28;;;;;;;8.82;2.28;;;16.60;99.90;;;;;;4999227;28;20051;-69
2022/10/18 10:18:01;;;;;;;9.88;2.08;;;16.80;99.90;;;;;;5004720;28;20042;-69
2022/10/18 10:20:43;;;;;;;15.38;2.13;;;16.80;99.90;;;;;;4995512;28;20042;-69
2022/10/18 10:23:31;;;;;;;10.35;1.85;;;16.80;99.90;;;;;;5032305;28;20394;-69
2022/10/18 10:26:00;;;;;;;10.90;2.10;;;16.80;99.90;;;;;;5005370;28;20051;-70
2022/10/18 10:28:35;;;;;;;8.38;2.17;;;16.90;99.90;;;;;;5011204;28;20525;-70
2022/10/18 10:31:31;;;;;;;11.27;1.98;;;17.10;99.90;;;;;;5025829;28;20168;-69
2022/10/18 10:34:02;;;;;;;8.82;1.55;;;16.90;99.90;;;;;;5010930;28;20131;-70
2022/10/18 10:36:29;;;;;;;8.85;1.80;;;17.00;99.90;;;;;;5004011;28;20073;-69
2022/10/18 10:39:09;;;;;;;15.63;2.05;;;17.10;99.90;;;;;;4994227;28;20807;-69
2022/10/18 10:41:39;;;;;;;14.32;1.75;;;17.00;99.90;;;;;;4994702;28;20056;-70
2022/10/18 10:44:14;;;;;;;10.50;1.92;;;17.10;99.90;;;;;;5011610;28;20507;-70
2022/10/18 10:46:40;;;;;;;10.63;2.17;;;17.20;99.90;;;;;;4995865;28;20678;-69
2022/10/18 10:49:13;;;;;;;9.45;1.70;;;17.20;99.90;;;;;;4993894;28;20034;-70
2022/10/18 10:51:39;;;;;;;9.70;2.25;;;17.20;99.90;;;;;;4994044;28;20049;-70
2022/10/18 10:54:12;;;;;;;10.10;1.80;;;17.50;99.90;;;;;;5009522;28;20050;-69
2022/10/18 10:56:59;;;;;;;14.30;1.80;;;17.60;99.90;;;;;;5010502;28;20404;-69
2022/10/18 10:59:29;;;;;;;11.25;2.65;;;17.90;99.90;;;;;;5029439;28;20061;-69
2022/10/18 11:02:14;;;;;;;8.07;1.75;;;18.10;99.90;;;;;;5011292;28;20080;-69
2022/10/18 11:04:41;;;;;;;8.63;1.83;;;18.00;99.90;;;;;;5042835;28;20046;-69
2022/10/18 11:07:34;;;;;;;10.10;1.63;;;17.90;99.90;;;;;;5046778;28;20053;-69
2022/10/18 11:10:09;;;;;;;7.47;1.50;;;17.90;99.90;;;;;;5013398;28;20077;-69
2022/10/18 11:12:48;;;;;;;9.68;1.80;;;18.20;99.90;;;;;;5046847;28;20096;-70
2022/10/18 11:15:31;;;;;;;9.00;1.48;;;18.30;99.90;;;;;;4997440;28;20148;-70
2022/10/18 11:18:16;;;;;;;12.15;2.00;;;18.60;99.90;;;;;;5046147;28;20402;-69
2022/10/18 11:21:20;;;;;;;7.47;1.38;;;18.80;99.90;;;;;;5046394;28;20057;-69
2022/10/18 11:23:45;;;;;;;6.68;1.40;;;18.90;99.90;;;;;;5012726;28;20054;-69
2022/10/18 11:26:11;;;;;;;6.88;1.30;;;18.90;99.90;;;;;;5029883;28;20612;-69
2022/10/18 11:29:14;;;;;;;5.78;1.25;;;18.80;99.90;;;;;;5045996;28;20058;-70
2022/10/18 11:32:03;;;;;;;12.60;1.67;;;19.00;99.90;;;;;;5046449;28;20065;-69
2022/10/18 11:34:37;;;;;;;8.95;1.40;;;19.40;99.90;;;;;;5046561;28;20053;-69
2022/10/18 11:37:30;;;;;;;11.18;1.85;;;19.30;99.90;;;;;;5013069;28;20049;-69
2022/10/18 11:40:14;;;;;;;6.85;1.60;;;19.20;99.90;;;;;;5013020;28;20054;-69
2022/10/18 11:42:43;;;;;;;5.95;1.40;;;19.10;99.90;;;;;;5029710;28;20050;-69
2022/10/18 11:45:46;;;;;;;9.00;1.52;;;19.40;99.90;;;;;;5028573;28;20450;-69
2022/10/18 11:48:43;;;;;;;7.35;1.38;;;19.80;99.90;;;;;;5046167;28;20104;-70
2022/10/18 11:51:32;;;;;;;6.43;1.58;;;20.30;99.90;;;;;;5012772;28;20042;-69
2022/10/18 11:54:17;;;;;;;6.55;1.50;;;19.80;99.90;;;;;;5045782;28;20103;-69
2022/10/18 11:57:01;;;;;;;8.50;1.50;;;19.30;99.90;;;;;;5046009;28;20057;-70
2022/10/18 11:59:41;;;;;;;8.65;1.50;;;19.40;99.90;;;;;;5045638;28;20049;-69
2022/10/18 12:02:28;;;;;;;5.95;1.25;;;19.30;99.90;;;;;;5029138;28;20050;-70
2022/10/18 12:04:58;;;;;;;5.47;1.23;;;19.50;99.90;;;;;;5045738;28;20558;-69
2022/10/18 12:07:27;;;;;;;10.63;1.35;;;19.60;99.90;;;;;;5012958;28;20075;-69
2022/10/18 12:09:54;;;;;;;4.90;1.30;;;20.00;99.90;;;;;;5045616;28;20134;-69
2022/10/18 12:12:31;;;;;;;6.75;1.48;;;20.50;99.90;;;;;;4996207;28;20046;-70
2022/10/18 12:15:23;;;;;;;7.22;1.48;;;21.00;99.90;;;;;;5028876;28;20111;-70
2022/10/18 12:18:02;;;;;;;6.88;1.40;;;21.40;99.90;;;;;;5045394;28;20038;-69
2022/10/18 12:20:55;;;;;;;7.35;1.50;;;21.20;99.90;;;;;;5045719;28;20147;-69
2022/10/18 12:23:37;;;;;;;6.05;1.27;;;20.80;99.90;;;;;;5012489;28;20107;-70
2022/10/18 12:26:05;;;;;;;7.07;1.42;;;21.00;99.90;;;;;;5012299;28;20073;-70
2022/10/18 12:28:40;;;;;;;7.07;1.63;;;20.30;99.90;;;;;;4995558;28;20052;-70
2022/10/18 12:31:20;;;;;;;6.38;1.25;;;20.30;99.90;;;;;;4995624;28;20054;-70
2022/10/18 12:33:50;;;;;;;7.30;1.33;;;20.30;99.90;;;;;;5045401;28;20443;-70
2022/10/18 12:36:44;;;;;;;8.35;1.65;;;20.80;99.90;;;;;;5012390;28;20121;-70
2022/10/18 12:39:18;;;;;;;4.45;1.40;;;20.80;99.90;;;;;;5011555;28;20152;-70
2022/10/18 12:41:46;;;;;;;10.05;1.52;;;21.30;99.90;;;;;;4995746;28;20057;-70
2022/10/18 12:44:19;;;;;;;9.30;1.52;;;21.80;99.90;;;;;;5044979;28;20104;-70
2022/10/18 12:46:49;;;;;;;12.55;1.60;;;21.90;99.90;;;;;;5012221;28;20050;-70